sensor_id;sensor_type;location;lat;lon;timestamp;temperature;humidity
25188;DHT22;13141;50.414;8.050;2023-04-29T00:00:47;13.40;99.90
25188;DHT22;13141;50.414;8.050;2023-04-29T00:03:12;13.50;99.90
25188;DHT22;13141;50.414;8.050;2023-04-29T00:05:38;13.50;99.90
25188;DHT22;13141;50.414;8.050;2023-04-29T00:08:04;13.60;99.90
25188;DHT22;13141;50.414;8.050;2023-04-29T00:10:29;13.60;99.90
25188;DHT22;13141;50.414;8.050;2023-04-29T00:12:55;13.70;99.90
25188;DHT22;13141;50.414;8.050;2023-04-29T00:15:21;13.70;99.90
25188;DHT22;13141;50.414;8.050;2023-04-29T00:17:48;13.80;99.90
25188;DHT22;13141;50.414;8.050;2023-04-29T00:20:13;13.90;99.90
25188;DHT22;13141;50.414;8.050;2023-04-29T00:22:39;13.90;99.90
25188;DHT22;13141;50.414;8.050;2023-04-29T00:25:06;14.00;99.90
25188;DHT22;13141;50.414;8.050;2023-04-29T00:27:32;14.00;99.90
25188;DHT22;13141;50.414;8.050;2023-04-29T00:29:57;14.10;99.90
25188;DHT22;13141;50.414;8.050;2023-04-29T00:32:23;14.10;99.90
25188;DHT22;13141;50.414;8.050;2023-04-29T00:34:50;14.10;99.90
25188;DHT22;13141;50.414;8.050;2023-04-29T00:37:16;14.20;99.90
25188;DHT22;13141;50.414;8.050;2023-04-29T00:39:41;14.20;99.90
25188;DHT22;13141;50.414;8.050;2023-04-29T00:42:08;14.30;99.90
25188;DHT22;13141;50.414;8.050;2023-04-29T00:44:34;14.10;99.90
25188;DHT22;13141;50.414;8.050;2023-04-29T00:46:59;14.00;99.90
25188;DHT22;13141;50.414;8.050;2023-04-29T00:49:25;14.00;99.90
25188;DHT22;13141;50.414;8.050;2023-04-29T00:51:53;14.00;99.90
25188;DHT22;13141;50.414;8.050;2023-04-29T00:54:20;14.00;99.90
25188;DHT22;13141;50.414;8.050;2023-04-29T00:56:46;14.20;99.90
25188;DHT22;13141;50.414;8.050;2023-04-29T00:59:13;14.00;99.90
25188;DHT22;13141;50.414;8.050;2023-04-29T01:01:39;14.00;99.90
25188;DHT22;13141;50.414;8.050;2023-04-29T01:04:05;14.00;99.90
25188;DHT22;13141;50.414;8.050;2023-04-29T01:06:38;14.00;99.90
25188;DHT22;13141;50.414;8.050;2023-04-29T01:09:16;14.10;99.90
25188;DHT22;13141;50.414;8.050;2023-04-29T01:11:52;14.10;99.90
25188;DHT22;13141;50.414;8.050;2023-04-29T01:14:20;14.10;99.90
25188;DHT22;13141;50.414;8.050;2023-04-29T01:16:50;14.10;99.90
25188;DHT22;13141;50.414;8.050;2023-04-29T01:19:32;14.10;99.90
25188;DHT22;13141;50.414;8.050;2023-04-29T01:22:02;14.00;99.90
25188;DHT22;13141;50.414;8.050;2023-04-29T01:24:29;14.00;99.90
25188;DHT22;13141;50.414;8.050;2023-04-29T01:26:56;14.00;99.90
25188;DHT22;13141;50.414;8.050;2023-04-29T01:29:30;14.00;99.90
25188;DHT22;13141;50.414;8.050;2023-04-29T01:32:03;14.00;99.90
25188;DHT22;13141;50.414;8.050;2023-04-29T01:34:33;14.00;99.90
25188;DHT22;13141;50.414;8.050;2023-04-29T01:37:06;14.10;99.90
25188;DHT22;13141;50.414;8.050;2023-04-29T01:39:40;14.00;99.90
25188;DHT22;13141;50.414;8.050;2023-04-29T01:42:14;14.00;99.90
25188;DHT22;13141;50.414;8.050;2023-04-29T01:44:42;14.00;99.90
25188;DHT22;13141;50.414;8.050;2023-04-29T01:47:12;14.00;99.90
25188;DHT22;13141;50.414;8.050;2023-04-29T01:49:38;14.00;99.90
25188;DHT22;13141;50.414;8.050;2023-04-29T01:52:03;14.00;99.90
25188;DHT22;13141;50.414;8.050;2023-04-29T01:54:29;14.00;99.90
25188;DHT22;13141;50.414;8.050;2023-04-29T01:56:56;13.90;99.90
25188;DHT22;13141;50.414;8.050;2023-04-29T01:59:22;13.90;99.90
25188;DHT22;13141;50.414;8.050;2023-04-29T02:01:47;13.90;99.90
25188;DHT22;13141;50.414;8.050;2023-04-29T02:04:13;13.90;99.90
25188;DHT22;13141;50.414;8.050;2023-04-29T02:06:39;13.90;99.90
25188;DHT22;13141;50.414;8.050;2023-04-29T02:09:04;13.90;99.90
25188;DHT22;13141;50.414;8.050;2023-04-29T02:11:30;13.90;99.90
25188;DHT22;13141;50.414;8.050;2023-04-29T02:13:57;13.90;99.90
25188;DHT22;13141;50.414;8.050;2023-04-29T02:16:22;13.90;99.90
25188;DHT22;13141;50.414;8.050;2023-04-29T02:18:48;13.90;99.90
25188;DHT22;13141;50.414;8.050;2023-04-29T02:21:14;13.90;99.90
25188;DHT22;13141;50.414;8.050;2023-04-29T02:23:39;13.90;99.90
25188;DHT22;13141;50.414;8.050;2023-04-29T02:26:05;13.90;99.90
25188;DHT22;13141;50.414;8.050;2023-04-29T02:28:31;13.90;99.90
25188;DHT22;13141;50.414;8.050;2023-04-29T02:30:58;13.90;99.90
25188;DHT22;13141;50.414;8.050;2023-04-29T02:33:23;13.90;99.90
25188;DHT22;13141;50.414;8.050;2023-04-29T02:35:49;14.00;99.90
25188;DHT22;13141;50.414;8.050;2023-04-29T02:38:15;13.80;99.90
25188;DHT22;13141;50.414;8.050;2023-04-29T02:40:41;13.80;99.90
25188;DHT22;13141;50.414;8.050;2023-04-29T02:43:07;13.80;99.90
25188;DHT22;13141;50.414;8.050;2023-04-29T02:45:32;13.80;99.90
25188;DHT22;13141;50.414;8.050;2023-04-29T02:47:59;13.80;99.90
25188;DHT22;13141;50.414;8.050;2023-04-29T02:50:25;13.90;99.90
25188;DHT22;13141;50.414;8.050;2023-04-29T02:52:50;13.70;99.90
25188;DHT22;13141;50.414;8.050;2023-04-29T02:55:16;13.70;99.90
25188;DHT22;13141;50.414;8.050;2023-04-29T02:57:42;13.70;99.90
25188;DHT22;13141;50.414;8.050;2023-04-29T03:00:08;13.70;99.90
25188;DHT22;13141;50.414;8.050;2023-04-29T03:02:34;13.70;99.90
25188;DHT22;13141;50.414;8.050;2023-04-29T03:05:01;13.70;99.90
25188;DHT22;13141;50.414;8.050;2023-04-29T03:07:27;13.70;99.90
25188;DHT22;13141;50.414;8.050;2023-04-29T03:09:53;13.60;99.90
25188;DHT22;13141;50.414;8.050;2023-04-29T03:12:18;13.70;99.90
25188;DHT22;13141;50.414;8.050;2023-04-29T03:14:44;13.60;99.90
25188;DHT22;13141;50.414;8.050;2023-04-29T03:17:09;13.60;99.90
25188;DHT22;13141;50.414;8.050;2023-04-29T03:19:35;13.60;99.90
25188;DHT22;13141;50.414;8.050;2023-04-29T03:22:02;13.60;99.90
25188;DHT22;13141;50.414;8.050;2023-04-29T03:24:28;13.50;99.90
25188;DHT22;13141;50.414;8.050;2023-04-29T03:26:53;13.60;99.90
25188;DHT22;13141;50.414;8.050;2023-04-29T03:29:19;13.60;99.90
25188;DHT22;13141;50.414;8.050;2023-04-29T03:31:45;13.60;99.90
25188;DHT22;13141;50.414;8.050;2023-04-29T03:34:10;13.50;99.90
25188;DHT22;13141;50.414;8.050;2023-04-29T03:36:36;13.60;99.90
25188;DHT22;13141;50.414;8.050;2023-04-29T03:39:03;13.50;99.90
25188;DHT22;13141;50.414;8.050;2023-04-29T03:41:29;13.50;99.90
25188;DHT22;13141;50.414;8.050;2023-04-29T03:43:54;13.50;99.90
25188;DHT22;13141;50.414;8.050;2023-04-29T03:46:20;13.40;99.90
25188;DHT22;13141;50.414;8.050;2023-04-29T03:48:46;13.40;99.90
25188;DHT22;13141;50.414;8.050;2023-04-29T03:51:12;13.40;99.90
25188;DHT22;13141;50.414;8.050;2023-04-29T03:53:37;13.40;99.90
25188;DHT22;13141;50.414;8.050;2023-04-29T03:56:05;13.40;99.90
25188;DHT22;13141;50.414;8.050;2023-04-29T03:58:30;13.50;99.90
25188;DHT22;13141;50.414;8.050;2023-04-29T04:00:56;13.50;99.90
25188;DHT22;13141;50.414;8.050;2023-04-29T04:03:22;13.50;99.90
25188;DHT22;13141;50.414;8.050;2023-04-29T04:05:48;13.40;99.90
25188;DHT22;13141;50.414;8.050;2023-04-29T04:08:13;13.30;99.90
25188;DHT22;13141;50.414;8.050;2023-04-29T04:10:39;13.30;99.90
25188;DHT22;13141;50.414;8.050;2023-04-29T04:13:06;13.30;99.90
25188;DHT22;13141;50.414;8.050;2023-04-29T04:15:31;13.30;99.90
25188;DHT22;13141;50.414;8.050;2023-04-29T04:17:57;13.20;99.90
25188;DHT22;13141;50.414;8.050;2023-04-29T04:20:23;13.20;99.90
25188;DHT22;13141;50.414;8.050;2023-04-29T04:22:48;13.20;99.90
25188;DHT22;13141;50.414;8.050;2023-04-29T04:25:14;13.10;99.90
25188;DHT22;13141;50.414;8.050;2023-04-29T04:27:40;13.10;99.90
25188;DHT22;13141;50.414;8.050;2023-04-29T04:30:08;13.10;99.90
25188;DHT22;13141;50.414;8.050;2023-04-29T04:32:34;13.10;99.90
25188;DHT22;13141;50.414;8.050;2023-04-29T04:35:00;13.00;99.90
25188;DHT22;13141;50.414;8.050;2023-04-29T04:37:25;13.20;99.90
25188;DHT22;13141;50.414;8.050;2023-04-29T04:39:51;13.10;99.90
25188;DHT22;13141;50.414;8.050;2023-04-29T04:42:17;13.00;99.90
25188;DHT22;13141;50.414;8.050;2023-04-29T04:44:43;13.00;99.90
25188;DHT22;13141;50.414;8.050;2023-04-29T04:47:10;13.00;99.90
25188;DHT22;13141;50.414;8.050;2023-04-29T04:49:35;13.00;99.90
25188;DHT22;13141;50.414;8.050;2023-04-29T04:52:01;13.00;99.90
25188;DHT22;13141;50.414;8.050;2023-04-29T04:54:27;13.00;99.90
25188;DHT22;13141;50.414;8.050;2023-04-29T04:56:52;13.00;99.90
25188;DHT22;13141;50.414;8.050;2023-04-29T04:59:18;13.00;99.90
25188;DHT22;13141;50.414;8.050;2023-04-29T05:01:43;13.00;99.90
25188;DHT22;13141;50.414;8.050;2023-04-29T05:04:10;13.00;99.90
25188;DHT22;13141;50.414;8.050;2023-04-29T05:06:36;13.00;99.90
25188;DHT22;13141;50.414;8.050;2023-04-29T05:09:02;13.00;99.90
25188;DHT22;13141;50.414;8.050;2023-04-29T05:11:27;13.00;99.90
25188;DHT22;13141;50.414;8.050;2023-04-29T05:13:53;13.00;99.90
25188;DHT22;13141;50.414;8.050;2023-04-29T05:16:19;12.90;99.90
25188;DHT22;13141;50.414;8.050;2023-04-29T05:18:44;12.90;99.90
25188;DHT22;13141;50.414;8.050;2023-04-29T05:21:11;12.90;99.90
25188;DHT22;13141;50.414;8.050;2023-04-29T05:23:37;12.90;99.90
25188;DHT22;13141;50.414;8.050;2023-04-29T05:26:03;12.90;99.90
25188;DHT22;13141;50.414;8.050;2023-04-29T05:28:28;12.90;99.90
25188;DHT22;13141;50.414;8.050;2023-04-29T05:30:54;12.80;99.90
25188;DHT22;13141;50.414;8.050;2023-04-29T05:33:20;12.90;99.90
25188;DHT22;13141;50.414;8.050;2023-04-29T05:35:45;12.80;99.90
25188;DHT22;13141;50.414;8.050;2023-04-29T05:38:12;12.70;99.90
25188;DHT22;13141;50.414;8.050;2023-04-29T05:40:38;12.70;99.90
25188;DHT22;13141;50.414;8.050;2023-04-29T05:43:04;12.80;99.90
25188;DHT22;13141;50.414;8.050;2023-04-29T05:45:29;12.80;99.90
25188;DHT22;13141;50.414;8.050;2023-04-29T05:47:55;12.90;99.90
25188;DHT22;13141;50.414;8.050;2023-04-29T05:50:20;12.80;99.90
25188;DHT22;13141;50.414;8.050;2023-04-29T05:52:46;12.90;99.90
25188;DHT22;13141;50.414;8.050;2023-04-29T05:55:13;12.80;99.90
25188;DHT22;13141;50.414;8.050;2023-04-29T05:57:39;12.70;99.90
25188;DHT22;13141;50.414;8.050;2023-04-29T06:00:05;12.70;99.90
25188;DHT22;13141;50.414;8.050;2023-04-29T06:02:31;12.80;99.90
25188;DHT22;13141;50.414;8.050;2023-04-29T06:04:57;12.80;99.90
25188;DHT22;13141;50.414;8.050;2023-04-29T06:07:23;12.80;99.90
25188;DHT22;13141;50.414;8.050;2023-04-29T06:09:48;12.90;99.90
25188;DHT22;13141;50.414;8.050;2023-04-29T06:12:15;12.80;99.90
25188;DHT22;13141;50.414;8.050;2023-04-29T06:14:41;12.80;99.90
25188;DHT22;13141;50.414;8.050;2023-04-29T06:17:07;12.80;99.90
25188;DHT22;13141;50.414;8.050;2023-04-29T06:19:32;12.80;99.90
25188;DHT22;13141;50.414;8.050;2023-04-29T06:21:58;12.90;99.90
25188;DHT22;13141;50.414;8.050;2023-04-29T06:24:24;12.90;99.90
25188;DHT22;13141;50.414;8.050;2023-04-29T06:26:50;13.00;99.90
25188;DHT22;13141;50.414;8.050;2023-04-29T06:29:17;13.00;99.90
25188;DHT22;13141;50.414;8.050;2023-04-29T06:31:42;13.00;99.90
25188;DHT22;13141;50.414;8.050;2023-04-29T06:34:08;13.00;99.90
25188;DHT22;13141;50.414;8.050;2023-04-29T06:36:34;13.00;99.90
25188;DHT22;13141;50.414;8.050;2023-04-29T06:38:59;13.00;99.90
25188;DHT22;13141;50.414;8.050;2023-04-29T06:41:25;12.90;99.90
25188;DHT22;13141;50.414;8.050;2023-04-29T06:43:50;12.90;99.90
25188;DHT22;13141;50.414;8.050;2023-04-29T06:46:17;12.90;99.90
25188;DHT22;13141;50.414;8.050;2023-04-29T06:48:43;12.90;99.90
25188;DHT22;13141;50.414;8.050;2023-04-29T06:51:09;12.90;99.90
25188;DHT22;13141;50.414;8.050;2023-04-29T06:53:34;13.00;99.90
25188;DHT22;13141;50.414;8.050;2023-04-29T06:56:00;13.20;99.90
25188;DHT22;13141;50.414;8.050;2023-04-29T06:58:26;13.00;99.90
25188;DHT22;13141;50.414;8.050;2023-04-29T07:00:51;13.00;99.90
25188;DHT22;13141;50.414;8.050;2023-04-29T07:03:18;13.00;99.90
25188;DHT22;13141;50.414;8.050;2023-04-29T07:05:44;13.00;99.90
25188;DHT22;13141;50.414;8.050;2023-04-29T07:08:11;13.00;99.90
25188;DHT22;13141;50.414;8.050;2023-04-29T07:10:36;12.90;99.90
25188;DHT22;13141;50.414;8.050;2023-04-29T07:13:02;12.90;99.90
25188;DHT22;13141;50.414;8.050;2023-04-29T07:15:28;12.90;99.90
25188;DHT22;13141;50.414;8.050;2023-04-29T07:17:55;12.90;99.90
25188;DHT22;13141;50.414;8.050;2023-04-29T07:20:22;12.90;99.90
25188;DHT22;13141;50.414;8.050;2023-04-29T07:22:47;13.00;99.90
25188;DHT22;13141;50.414;8.050;2023-04-29T07:25:13;13.00;99.90
25188;DHT22;13141;50.414;8.050;2023-04-29T07:27:39;13.10;99.90
25188;DHT22;13141;50.414;8.050;2023-04-29T07:30:06;13.10;99.90
25188;DHT22;13141;50.414;8.050;2023-04-29T07:32:31;13.30;99.90
25188;DHT22;13141;50.414;8.050;2023-04-29T07:34:57;13.40;99.90
25188;DHT22;13141;50.414;8.050;2023-04-29T07:37:24;13.60;99.90
25188;DHT22;13141;50.414;8.050;2023-04-29T07:39:50;13.70;99.90
25188;DHT22;13141;50.414;8.050;2023-04-29T07:42:16;13.70;99.90
25188;DHT22;13141;50.414;8.050;2023-04-29T07:44:41;13.70;99.90
25188;DHT22;13141;50.414;8.050;2023-04-29T07:47:07;13.70;99.90
25188;DHT22;13141;50.414;8.050;2023-04-29T07:49:33;13.80;99.90
25188;DHT22;13141;50.414;8.050;2023-04-29T07:51:58;13.80;99.90
25188;DHT22;13141;50.414;8.050;2023-04-29T07:54:25;13.90;99.90
25188;DHT22;13141;50.414;8.050;2023-04-29T07:56:51;13.90;99.90
25188;DHT22;13141;50.414;8.050;2023-04-29T07:59:17;14.00;99.90
25188;DHT22;13141;50.414;8.050;2023-04-29T08:01:42;14.10;99.90
25188;DHT22;13141;50.414;8.050;2023-04-29T08:04:08;14.10;99.90
25188;DHT22;13141;50.414;8.050;2023-04-29T08:06:34;14.10;99.90
25188;DHT22;13141;50.414;8.050;2023-04-29T08:08:59;14.10;99.90
25188;DHT22;13141;50.414;8.050;2023-04-29T08:11:27;14.20;99.90
25188;DHT22;13141;50.414;8.050;2023-04-29T08:13:53;14.20;99.90
25188;DHT22;13141;50.414;8.050;2023-04-29T08:16:18;14.20;99.90
25188;DHT22;13141;50.414;8.050;2023-04-29T08:18:44;14.20;99.90
25188;DHT22;13141;50.414;8.050;2023-04-29T08:21:09;14.30;99.90
25188;DHT22;13141;50.414;8.050;2023-04-29T08:23:35;14.20;99.90
25188;DHT22;13141;50.414;8.050;2023-04-29T08:26:01;14.20;99.90
25188;DHT22;13141;50.414;8.050;2023-04-29T08:28:28;14.10;99.90
25188;DHT22;13141;50.414;8.050;2023-04-29T08:30:54;14.10;99.90
25188;DHT22;13141;50.414;8.050;2023-04-29T08:33:19;14.20;99.90
25188;DHT22;13141;50.414;8.050;2023-04-29T08:35:45;14.20;99.90
25188;DHT22;13141;50.414;8.050;2023-04-29T08:38:11;14.30;99.90
25188;DHT22;13141;50.414;8.050;2023-04-29T08:40:41;14.50;99.90
25188;DHT22;13141;50.414;8.050;2023-04-29T08:43:07;14.50;99.90
25188;DHT22;13141;50.414;8.050;2023-04-29T08:45:36;14.60;99.90
25188;DHT22;13141;50.414;8.050;2023-04-29T08:48:02;14.50;99.90
25188;DHT22;13141;50.414;8.050;2023-04-29T08:50:29;14.50;99.90
25188;DHT22;13141;50.414;8.050;2023-04-29T08:52:54;14.70;99.90
25188;DHT22;13141;50.414;8.050;2023-04-29T08:55:20;14.60;99.90
25188;DHT22;13141;50.414;8.050;2023-04-29T08:57:48;14.50;99.90
25188;DHT22;13141;50.414;8.050;2023-04-29T09:00:14;14.30;99.90
25188;DHT22;13141;50.414;8.050;2023-04-29T09:02:44;14.30;99.90
25188;DHT22;13141;50.414;8.050;2023-04-29T09:05:11;14.30;99.90
25188;DHT22;13141;50.414;8.050;2023-04-29T09:07:37;14.40;99.90
25188;DHT22;13141;50.414;8.050;2023-04-29T09:10:04;14.50;99.90
25188;DHT22;13141;50.414;8.050;2023-04-29T09:12:30;14.60;99.90
25188;DHT22;13141;50.414;8.050;2023-04-29T09:14:56;14.70;99.90
25188;DHT22;13141;50.414;8.050;2023-04-29T09:17:37;14.70;99.90
25188;DHT22;13141;50.414;8.050;2023-04-29T09:20:25;14.70;99.90
25188;DHT22;13141;50.414;8.050;2023-04-29T09:22:52;14.70;99.90
25188;DHT22;13141;50.414;8.050;2023-04-29T09:25:19;14.70;99.90
25188;DHT22;13141;50.414;8.050;2023-04-29T09:27:45;14.70;99.90
25188;DHT22;13141;50.414;8.050;2023-04-29T09:30:11;14.70;99.90
25188;DHT22;13141;50.414;8.050;2023-04-29T09:32:36;14.80;99.90
25188;DHT22;13141;50.414;8.050;2023-04-29T09:35:22;14.80;99.90
25188;DHT22;13141;50.414;8.050;2023-04-29T09:37:48;15.00;99.90
25188;DHT22;13141;50.414;8.050;2023-04-29T09:40:26;15.10;99.90
25188;DHT22;13141;50.414;8.050;2023-04-29T09:43:11;15.40;99.90
25188;DHT22;13141;50.414;8.050;2023-04-29T09:46:21;15.80;99.90
25188;DHT22;13141;50.414;8.050;2023-04-29T09:48:54;16.20;99.90
25188;DHT22;13141;50.414;8.050;2023-04-29T10:00:27;17.00;99.90
25188;DHT22;13141;50.414;8.050;2023-04-29T10:03:18;17.10;99.90
25188;DHT22;13141;50.414;8.050;2023-04-29T10:05:53;16.90;99.90
25188;DHT22;13141;50.414;8.050;2023-04-29T10:08:28;16.80;99.90
25188;DHT22;13141;50.414;8.050;2023-04-29T10:11:28;16.70;99.90
25188;DHT22;13141;50.414;8.050;2023-04-29T10:13:50;16.50;99.90
25188;DHT22;13141;50.414;8.050;2023-04-29T10:19:43;16.10;99.90
25188;DHT22;13141;50.414;8.050;2023-04-29T10:22:35;16.40;99.90
25188;DHT22;13141;50.414;8.050;2023-04-29T10:25:02;16.40;99.90
25188;DHT22;13141;50.414;8.050;2023-04-29T10:27:59;16.20;99.90
25188;DHT22;13141;50.414;8.050;2023-04-29T10:30:28;16.20;99.90
25188;DHT22;13141;50.414;8.050;2023-04-29T10:32:57;16.40;99.90
25188;DHT22;13141;50.414;8.050;2023-04-29T10:35:36;16.30;99.90
25188;DHT22;13141;50.414;8.050;2023-04-29T10:38:40;16.40;99.90
25188;DHT22;13141;50.414;8.050;2023-04-29T10:41:20;16.80;99.90
25188;DHT22;13141;50.414;8.050;2023-04-29T10:43:54;17.30;99.90
25188;DHT22;13141;50.414;8.050;2023-04-29T10:46:26;17.50;99.90
25188;DHT22;13141;50.414;8.050;2023-04-29T10:49:02;17.00;99.90
25188;DHT22;13141;50.414;8.050;2023-04-29T10:51:39;17.20;99.90
25188;DHT22;13141;50.414;8.050;2023-04-29T10:54:33;17.00;99.90
25188;DHT22;13141;50.414;8.050;2023-04-29T10:57:02;16.90;99.90
25188;DHT22;13141;50.414;8.050;2023-04-29T10:59:45;17.10;99.90
25188;DHT22;13141;50.414;8.050;2023-04-29T11:02:11;17.00;99.90
25188;DHT22;13141;50.414;8.050;2023-04-29T11:10:47;17.20;99.90
25188;DHT22;13141;50.414;8.050;2023-04-29T11:13:20;17.60;99.90
25188;DHT22;13141;50.414;8.050;2023-04-29T11:15:46;17.70;99.90
25188;DHT22;13141;50.414;8.050;2023-04-29T11:18:11;17.70;99.90
25188;DHT22;13141;50.414;8.050;2023-04-29T11:23:33;18.40;99.90
25188;DHT22;13141;50.414;8.050;2023-04-29T11:26:00;18.80;99.90
25188;DHT22;13141;50.414;8.050;2023-04-29T11:28:26;19.10;99.90
25188;DHT22;13141;50.414;8.050;2023-04-29T11:30:52;19.20;99.90
25188;DHT22;13141;50.414;8.050;2023-04-29T11:33:19;19.10;99.90
25188;DHT22;13141;50.414;8.050;2023-04-29T11:35:45;19.30;99.90
25188;DHT22;13141;50.414;8.050;2023-04-29T11:38:11;19.60;99.90
25188;DHT22;13141;50.414;8.050;2023-04-29T11:40:40;19.90;99.90
25188;DHT22;13141;50.414;8.050;2023-04-29T11:43:07;19.80;99.90
25188;DHT22;13141;50.414;8.050;2023-04-29T11:45:34;19.80;99.90
25188;DHT22;13141;50.414;8.050;2023-04-29T11:48:00;19.80;99.90
25188;DHT22;13141;50.414;8.050;2023-04-29T11:50:26;19.70;99.90
25188;DHT22;13141;50.414;8.050;2023-04-29T11:52:53;19.70;99.90
25188;DHT22;13141;50.414;8.050;2023-04-29T11:55:22;19.60;99.90
25188;DHT22;13141;50.414;8.050;2023-04-29T11:57:48;19.30;99.90
25188;DHT22;13141;50.414;8.050;2023-04-29T12:00:15;19.00;99.90
25188;DHT22;13141;50.414;8.050;2023-04-29T12:02:43;18.70;99.90
25188;DHT22;13141;50.414;8.050;2023-04-29T12:05:09;18.40;99.90
25188;DHT22;13141;50.414;8.050;2023-04-29T12:07:35;18.30;99.90
25188;DHT22;13141;50.414;8.050;2023-04-29T12:10:01;18.40;99.90
25188;DHT22;13141;50.414;8.050;2023-04-29T12:12:27;18.60;99.90
25188;DHT22;13141;50.414;8.050;2023-04-29T12:14:53;18.60;99.90
25188;DHT22;13141;50.414;8.050;2023-04-29T12:17:20;18.60;99.90
25188;DHT22;13141;50.414;8.050;2023-04-29T12:19:46;18.50;99.90
25188;DHT22;13141;50.414;8.050;2023-04-29T12:22:11;18.40;99.90
25188;DHT22;13141;50.414;8.050;2023-04-29T12:24:38;18.30;99.90
25188;DHT22;13141;50.414;8.050;2023-04-29T12:27:07;18.20;99.90
25188;DHT22;13141;50.414;8.050;2023-04-29T12:29:33;18.10;99.90
25188;DHT22;13141;50.414;8.050;2023-04-29T12:31:59;18.10;99.90
25188;DHT22;13141;50.414;8.050;2023-04-29T12:34:27;18.30;99.90
25188;DHT22;13141;50.414;8.050;2023-04-29T12:36:54;18.50;99.90
25188;DHT22;13141;50.414;8.050;2023-04-29T12:39:20;18.70;99.90
25188;DHT22;13141;50.414;8.050;2023-04-29T12:41:46;18.90;99.90
25188;DHT22;13141;50.414;8.050;2023-04-29T12:44:11;19.10;99.90
25188;DHT22;13141;50.414;8.050;2023-04-29T12:46:38;19.10;99.90
25188;DHT22;13141;50.414;8.050;2023-04-29T12:49:04;19.10;99.90
25188;DHT22;13141;50.414;8.050;2023-04-29T12:51:32;19.00;99.90
25188;DHT22;13141;50.414;8.050;2023-04-29T12:53:58;19.10;99.90
25188;DHT22;13141;50.414;8.050;2023-04-29T12:56:24;18.90;99.90
25188;DHT22;13141;50.414;8.050;2023-04-29T12:58:49;18.80;99.90
25188;DHT22;13141;50.414;8.050;2023-04-29T13:01:15;18.90;99.90
25188;DHT22;13141;50.414;8.050;2023-04-29T13:03:40;18.80;99.90
25188;DHT22;13141;50.414;8.050;2023-04-29T13:06:06;18.80;99.90
25188;DHT22;13141;50.414;8.050;2023-04-29T13:08:33;18.80;99.90
25188;DHT22;13141;50.414;8.050;2023-04-29T13:10:59;19.00;99.90
25188;DHT22;13141;50.414;8.050;2023-04-29T13:13:24;19.30;99.90
25188;DHT22;13141;50.414;8.050;2023-04-29T13:15:50;19.40;99.90
25188;DHT22;13141;50.414;8.050;2023-04-29T13:18:16;19.40;99.90
25188;DHT22;13141;50.414;8.050;2023-04-29T13:20:41;19.50;99.90
25188;DHT22;13141;50.414;8.050;2023-04-29T13:23:07;19.70;99.90
25188;DHT22;13141;50.414;8.050;2023-04-29T13:25:34;19.80;99.90
25188;DHT22;13141;50.414;8.050;2023-04-29T13:27:59;19.80;99.90
25188;DHT22;13141;50.414;8.050;2023-04-29T13:30:25;19.60;99.90
25188;DHT22;13141;50.414;8.050;2023-04-29T13:32:51;19.30;99.90
25188;DHT22;13141;50.414;8.050;2023-04-29T13:35:16;19.20;99.90
25188;DHT22;13141;50.414;8.050;2023-04-29T13:37:42;19.20;99.90
25188;DHT22;13141;50.414;8.050;2023-04-29T13:40:08;19.10;99.90
25188;DHT22;13141;50.414;8.050;2023-04-29T13:42:35;19.20;99.90
25188;DHT22;13141;50.414;8.050;2023-04-29T13:45:01;19.40;99.90
25188;DHT22;13141;50.414;8.050;2023-04-29T13:47:27;19.50;99.90
25188;DHT22;13141;50.414;8.050;2023-04-29T13:49:52;19.30;99.90
25188;DHT22;13141;50.414;8.050;2023-04-29T13:52:18;19.10;99.90
25188;DHT22;13141;50.414;8.050;2023-04-29T13:54:44;18.80;99.90
25188;DHT22;13141;50.414;8.050;2023-04-29T13:57:09;18.80;99.90
25188;DHT22;13141;50.414;8.050;2023-04-29T13:59:36;18.70;99.90
25188;DHT22;13141;50.414;8.050;2023-04-29T14:02:02;18.70;99.90
25188;DHT22;13141;50.414;8.050;2023-04-29T14:04:28;18.60;99.90
25188;DHT22;13141;50.414;8.050;2023-04-29T14:06:54;18.40;99.90
25188;DHT22;13141;50.414;8.050;2023-04-29T14:09:20;18.30;99.90
25188;DHT22;13141;50.414;8.050;2023-04-29T14:11:46;18.30;99.90
25188;DHT22;13141;50.414;8.050;2023-04-29T14:14:12;18.30;99.90
25188;DHT22;13141;50.414;8.050;2023-04-29T14:16:39;18.20;99.90
25188;DHT22;13141;50.414;8.050;2023-04-29T14:19:05;18.20;99.90
25188;DHT22;13141;50.414;8.050;2023-04-29T14:21:31;18.10;99.90
25188;DHT22;13141;50.414;8.050;2023-04-29T14:23:56;18.10;99.90
25188;DHT22;13141;50.414;8.050;2023-04-29T14:26:22;18.00;99.90
25188;DHT22;13141;50.414;8.050;2023-04-29T14:28:48;17.90;99.90
25188;DHT22;13141;50.414;8.050;2023-04-29T14:31:13;17.90;99.90
25188;DHT22;13141;50.414;8.050;2023-04-29T14:33:40;17.80;99.90
25188;DHT22;13141;50.414;8.050;2023-04-29T14:36:06;17.70;99.90
25188;DHT22;13141;50.414;8.050;2023-04-29T14:38:33;17.70;99.90
25188;DHT22;13141;50.414;8.050;2023-04-29T14:40:58;17.70;99.90
25188;DHT22;13141;50.414;8.050;2023-04-29T14:43:24;17.70;99.90
25188;DHT22;13141;50.414;8.050;2023-04-29T14:45:50;17.70;99.90
25188;DHT22;13141;50.414;8.050;2023-04-29T14:48:15;17.60;99.90
25188;DHT22;13141;50.414;8.050;2023-04-29T14:50:42;17.60;99.90
25188;DHT22;13141;50.414;8.050;2023-04-29T14:53:08;17.70;99.90
25188;DHT22;13141;50.414;8.050;2023-04-29T14:55:33;17.80;99.90
25188;DHT22;13141;50.414;8.050;2023-04-29T14:57:59;17.70;99.90
25188;DHT22;13141;50.414;8.050;2023-04-29T15:00:25;17.80;99.90
25188;DHT22;13141;50.414;8.050;2023-04-29T15:02:50;17.80;99.90
25188;DHT22;13141;50.414;8.050;2023-04-29T15:05:16;17.70;99.90
25188;DHT22;13141;50.414;8.050;2023-04-29T15:07:43;17.80;99.90
25188;DHT22;13141;50.414;8.050;2023-04-29T15:10:09;17.80;99.90
25188;DHT22;13141;50.414;8.050;2023-04-29T15:12:34;17.70;99.90
25188;DHT22;13141;50.414;8.050;2023-04-29T15:15:00;17.70;99.90
25188;DHT22;13141;50.414;8.050;2023-04-29T15:17:26;17.70;99.90
25188;DHT22;13141;50.414;8.050;2023-04-29T15:19:51;17.70;99.90
25188;DHT22;13141;50.414;8.050;2023-04-29T15:22:17;17.70;99.90
25188;DHT22;13141;50.414;8.050;2023-04-29T15:24:44;17.80;99.90
25188;DHT22;13141;50.414;8.050;2023-04-29T15:27:10;17.70;99.90
25188;DHT22;13141;50.414;8.050;2023-04-29T15:29:35;17.60;99.90
25188;DHT22;13141;50.414;8.050;2023-04-29T15:32:01;17.60;99.90
25188;DHT22;13141;50.414;8.050;2023-04-29T15:34:26;17.70;99.90
25188;DHT22;13141;50.414;8.050;2023-04-29T15:36:52;17.70;99.90
25188;DHT22;13141;50.414;8.050;2023-04-29T15:39:18;17.80;99.90
25188;DHT22;13141;50.414;8.050;2023-04-29T15:41:45;17.80;99.90
25188;DHT22;13141;50.414;8.050;2023-04-29T15:44:10;17.80;99.90
25188;DHT22;13141;50.414;8.050;2023-04-29T15:46:36;17.80;99.90
25188;DHT22;13141;50.414;8.050;2023-04-29T15:49:02;17.80;99.90
25188;DHT22;13141;50.414;8.050;2023-04-29T15:51:27;17.70;99.90